Time;durP1;ratioP1;P1;durP2;ratioP2;P2;SDS_P1;SDS_P2;PMS_P1;PMS_P2;Temp;Humidity;BMP_temperature;BMP_pressure;BME280_temperature;BME280_humidity;BME280_pressure;Samples;Min_cycle;Max_cycle;Signal;HPM_P1;HPM_P2
2023/06/22 00:20:57;;;;;;;1999.90;999.90;;;;;;;;;;5007715;28;20220;-71
2023/06/22 00:23:43;;;;;;;1999.90;999.90;;;;;;;;;;5010405;28;20794;-70
2023/06/22 00:26:28;;;;;;;1999.90;999.90;;;;;;;;;;5013245;28;20211;-72
2023/06/22 00:29:13;;;;;;;1999.90;999.90;;;;;;;;;;5004007;28;20220;-71
2023/06/22 00:31:58;;;;;;;1999.90;999.90;;;;;;;;;;4993685;28;20289;-69
2023/06/22 00:34:42;;;;;;;1999.90;999.90;;;;;;;;;;4991608;28;20213;-72
2023/06/22 00:37:29;;;;;;;1999.90;999.90;;;;;;;;;;4985517;28;20622;-72
2023/06/22 00:40:14;;;;;;;1999.90;999.90;;;;;;;;;;4989742;28;20232;-71
2023/06/22 00:43:00;;;;;;;1999.90;999.90;;;;;;;;;;4991852;28;20359;-71
2023/06/22 00:45:45;;;;;;;1999.90;999.90;;;;;;;;;;4984676;28;20210;-71
2023/06/22 00:48:30;;;;;;;1999.90;999.90;;;;;;;;;;4990463;28;20207;-71
2023/06/22 00:51:15;;;;;;;1999.90;999.90;;;;;;;;;;4993050;28;20470;-72
2023/06/22 00:54:01;;;;;;;1999.90;999.90;;;;;;;;;;4991543;28;20453;-71
2023/06/22 00:56:46;;;;;;;1999.90;999.90;;;;;;;;;;4973713;28;20212;-71
2023/06/22 00:59:32;;;;;;;1999.90;999.90;;;;;;;;;;4989738;28;20238;-71
2023/06/22 01:02:17;;;;;;;1999.90;999.90;;;;;;;;;;4990365;28;20232;-71
2023/06/22 01:05:02;;;;;;;1999.90;999.90;;;;;;;;;;4992740;28;20707;-71
2023/06/22 01:07:55;;;;;;;1999.90;999.90;;;;;;;;;;4991720;28;20216;-71
2023/06/22 01:10:44;;;;;;;1999.90;999.90;;;;;;;;;;4992520;28;20254;-71
2023/06/22 01:13:31;;;;;;;1999.90;999.90;;;;;;;;;;4992926;28;20363;-71
2023/06/22 01:16:18;;;;;;;1999.90;999.90;;;;;;;;;;4992859;28;20724;-71
2023/06/22 01:19:10;;;;;;;1999.90;999.90;;;;;;;;;;4992581;28;20243;-71
2023/06/22 01:21:56;;;;;;;1999.90;999.90;;;;;;;;;;4992515;28;20223;-71
2023/06/22 01:24:45;;;;;;;1999.90;999.90;;;;;;;;;;4992380;28;20207;-72
2023/06/22 01:27:48;;;;;;;1999.90;999.90;;;;;;;;;;4992731;28;20331;-71
2023/06/22 01:30:34;;;;;;;1999.90;999.90;;;;;;;;;;4992606;28;20371;-71
2023/06/22 01:33:19;;;;;;;1999.90;999.90;;;;;;;;;;4992387;28;20290;-72
2023/06/22 01:36:05;;;;;;;1999.90;999.90;;;;;;;;;;4992656;28;20636;-72
2023/06/22 01:38:51;;;;;;;1999.90;999.90;;;;;;;;;;4991454;28;20305;-71
2023/06/22 01:41:38;;;;;;;1999.90;999.90;;;;;;;;;;4989089;28;20286;-69
2023/06/22 01:44:24;;;;;;;1999.90;999.90;;;;;;;;;;4978201;28;20296;-70
2023/06/22 01:47:13;;;;;;;1999.90;999.90;;;;;;;;;;4980102;28;20422;-69
2023/06/22 01:49:59;;;;;;;1999.90;999.90;;;;;;;;;;4988848;28;20583;-69
2023/06/22 01:52:44;;;;;;;1999.90;999.90;;;;;;;;;;4991444;28;20335;-70
2023/06/22 01:55:28;;;;;;;1999.90;999.90;;;;;;;;;;4992472;28;20247;-70
2023/06/22 01:58:13;;;;;;;1999.90;999.90;;;;;;;;;;4991878;28;20282;-70
2023/06/22 02:01:03;;;;;;;1999.90;999.90;;;;;;;;;;4991955;28;20208;-70
2023/06/22 02:03:52;;;;;;;1999.90;999.90;;;;;;;;;;4992085;28;20207;-70
2023/06/22 02:06:38;;;;;;;1999.90;999.90;;;;;;;;;;4992371;28;20261;-70
2023/06/22 02:09:24;;;;;;;1999.90;999.90;;;;;;;;;;4991948;28;20248;-70
2023/06/22 02:12:11;;;;;;;1999.90;999.90;;;;;;;;;;4992324;28;20207;-69
2023/06/22 02:14:56;;;;;;;1999.90;999.90;;;;;;;;;;4985468;28;20215;-70
2023/06/22 02:17:44;;;;;;;1999.90;999.90;;;;;;;;;;4984802;28;20271;-70
2023/06/22 02:20:30;;;;;;;1999.90;999.90;;;;;;;;;;4981917;28;20248;-70
2023/06/22 02:23:15;;;;;;;1999.90;999.90;;;;;;;;;;4995366;28;20232;-71
2023/06/22 02:26:00;;;;;;;1999.90;999.90;;;;;;;;;;4986524;28;20247;-71
2023/06/22 02:28:45;;;;;;;1999.90;999.90;;;;;;;;;;4995722;28;20227;-70
2023/06/22 02:31:31;;;;;;;1999.90;999.90;;;;;;;;;;4989362;28;20578;-70
2023/06/22 02:34:18;;;;;;;1999.90;999.90;;;;;;;;;;4991426;28;20601;-70
2023/06/22 02:37:04;;;;;;;1999.90;999.90;;;;;;;;;;4986213;28;20961;-70
2023/06/22 02:39:49;;;;;;;1999.90;999.90;;;;;;;;;;4986262;28;20351;-71
2023/06/22 02:42:34;;;;;;;1999.90;999.90;;;;;;;;;;4992342;28;20247;-70
2023/06/22 02:45:19;;;;;;;1999.90;999.90;;;;;;;;;;4985780;28;20331;-70
2023/06/22 02:48:05;;;;;;;1999.90;999.90;;;;;;;;;;4991651;28;20351;-70
2023/06/22 02:50:50;;;;;;;1999.90;999.90;;;;;;;;;;4991666;28;20207;-70
2023/06/22 02:53:37;;;;;;;1999.90;999.90;;;;;;;;;;4994103;28;20250;-70
2023/06/22 02:56:24;;;;;;;1999.90;999.90;;;;;;;;;;4993453;28;20215;-70
2023/06/22 02:59:10;;;;;;;1999.90;999.90;;;;;;;;;;4979665;28;20235;-70
2023/06/22 03:01:55;;;;;;;1999.90;999.90;;;;;;;;;;4991355;28;20226;-69
2023/06/22 03:04:41;;;;;;;1999.90;999.90;;;;;;;;;;4993845;28;20199;-70
2023/06/22 03:07:26;;;;;;;1999.90;999.90;;;;;;;;;;4979609;28;20233;-69
2023/06/22 03:10:12;;;;;;;1999.90;999.90;;;;;;;;;;4990650;28;20510;-69
2023/06/22 03:12:57;;;;;;;1999.90;999.90;;;;;;;;;;4984125;28;20215;-70
2023/06/22 03:15:42;;;;;;;1999.90;999.90;;;;;;;;;;4982829;28;20215;-70
2023/06/22 03:18:28;;;;;;;1999.90;999.90;;;;;;;;;;4993957;28;20301;-70
2023/06/22 03:21:15;;;;;;;1999.90;999.90;;;;;;;;;;4980851;28;20212;-69
2023/06/22 03:24:00;;;;;;;1999.90;999.90;;;;;;;;;;4990074;28;20700;-70
2023/06/22 03:26:47;;;;;;;1999.90;999.90;;;;;;;;;;4993641;28;20800;-70
2023/06/22 03:29:32;;;;;;;1999.90;999.90;;;;;;;;;;4992044;28;20413;-70
2023/06/22 03:32:17;;;;;;;1999.90;999.90;;;;;;;;;;4977037;28;20207;-70
2023/06/22 03:35:02;;;;;;;1999.90;999.90;;;;;;;;;;4986770;28;20703;-69
2023/06/22 03:37:47;;;;;;;1999.90;999.90;;;;;;;;;;4993567;28;20234;-69
2023/06/22 03:40:32;;;;;;;1999.90;999.90;;;;;;;;;;4991640;28;20752;-69
2023/06/22 03:43:18;;;;;;;1999.90;999.90;;;;;;;;;;4990680;28;20235;-70
2023/06/22 03:46:03;;;;;;;1999.90;999.90;;;;;;;;;;4975373;28;20208;-69
2023/06/22 03:48:48;;;;;;;1999.90;999.90;;;;;;;;;;4982276;28;20277;-70
2023/06/22 03:51:33;;;;;;;1999.90;999.90;;;;;;;;;;4990307;28;20674;-70
2023/06/22 03:54:18;;;;;;;1999.90;999.90;;;;;;;;;;4981374;28;20250;-70
2023/06/22 03:57:04;;;;;;;1999.90;999.90;;;;;;;;;;4990823;28;20341;-70
2023/06/22 03:59:50;;;;;;;1999.90;999.90;;;;;;;;;;4990214;28;20294;-70
2023/06/22 04:02:35;;;;;;;1999.90;999.90;;;;;;;;;;4988506;28;21100;-70
2023/06/22 04:05:20;;;;;;;1999.90;999.90;;;;;;;;;;4992688;28;20279;-70
2023/06/22 04:08:05;;;;;;;1999.90;999.90;;;;;;;;;;4992707;28;20211;-70
2023/06/22 04:10:50;;;;;;;1999.90;999.90;;;;;;;;;;4978692;28;20237;-69
2023/06/22 04:13:35;;;;;;;1999.90;999.90;;;;;;;;;;4990282;28;20701;-71
2023/06/22 04:16:21;;;;;;;1999.90;999.90;;;;;;;;;;4992086;28;20219;-70
2023/06/22 04:19:06;;;;;;;1999.90;999.90;;;;;;;;;;4992488;28;20630;-70
2023/06/22 04:21:51;;;;;;;1999.90;999.90;;;;;;;;;;4991380;28;20731;-70
2023/06/22 04:24:36;;;;;;;1999.90;999.90;;;;;;;;;;4993470;28;20215;-71
2023/06/22 04:27:22;;;;;;;1999.90;999.90;;;;;;;;;;4992673;28;20215;-70
2023/06/22 04:30:08;;;;;;;1999.90;999.90;;;;;;;;;;4975052;28;20792;-71
2023/06/22 04:32:57;;;;;;;1999.90;999.90;;;;;;;;;;4993056;28;20284;-70
2023/06/22 04:35:42;;;;;;;1999.90;999.90;;;;;;;;;;4992698;28;20195;-70
2023/06/22 04:38:27;;;;;;;1999.90;999.90;;;;;;;;;;4993332;28;20289;-70
2023/06/22 04:41:17;;;;;;;1999.90;999.90;;;;;;;;;;4991202;28;20211;-70
2023/06/22 04:44:05;;;;;;;1999.90;999.90;;;;;;;;;;4982847;28;20235;-69
2023/06/22 04:46:53;;;;;;;1999.90;999.90;;;;;;;;;;4983090;28;20342;-69
2023/06/22 04:49:42;;;;;;;1999.90;999.90;;;;;;;;;;4984245;28;20227;-69
2023/06/22 04:52:27;;;;;;;1999.90;999.90;;;;;;;;;;4988087;28;20211;-70
2023/06/22 04:55:12;;;;;;;1999.90;999.90;;;;;;;;;;4985268;28;20409;-70
2023/06/22 04:58:04;;;;;;;1999.90;999.90;;;;;;;;;;4985098;28;20291;-69
2023/06/22 05:00:51;;;;;;;1999.90;999.90;;;;;;;;;;4982605;28;20336;-70
2023/06/22 05:03:37;;;;;;;1999.90;999.90;;;;;;;;;;4981249;28;20619;-69
2023/06/22 05:06:24;;;;;;;1999.90;999.90;;;;;;;;;;4976075;28;20228;-69
2023/06/22 05:09:09;;;;;;;1999.90;999.90;;;;;;;;;;4988218;28;20708;-70
2023/06/22 05:11:56;;;;;;;1999.90;999.90;;;;;;;;;;4985877;28;20926;-69
2023/06/22 05:14:41;;;;;;;1999.90;999.90;;;;;;;;;;4977311;28;20397;-70
2023/06/22 05:17:26;;;;;;;1999.90;999.90;;;;;;;;;;4989822;28;20228;-70
2023/06/22 05:20:12;;;;;;;1999.90;999.90;;;;;;;;;;4984986;28;20439;-70
2023/06/22 05:22:58;;;;;;;1999.90;999.90;;;;;;;;;;4979951;28;20659;-70
2023/06/22 05:25:43;;;;;;;1999.90;999.90;;;;;;;;;;4979682;28;20285;-69
2023/06/22 05:28:28;;;;;;;1999.90;999.90;;;;;;;;;;4977728;28;20564;-71
2023/06/22 05:31:13;;;;;;;1999.90;999.90;;;;;;;;;;4991170;28;20228;-71
2023/06/22 05:33:59;;;;;;;1999.90;999.90;;;;;;;;;;4991256;28;20203;-71
2023/06/22 05:36:44;;;;;;;1999.90;999.90;;;;;;;;;;4988412;28;20214;-71
2023/06/22 05:39:30;;;;;;;1999.90;999.90;;;;;;;;;;4977050;28;20357;-70
2023/06/22 05:42:16;;;;;;;1999.90;999.90;;;;;;;;;;4981602;28;20217;-69
2023/06/22 05:45:00;;;;;;;1999.90;999.90;;;;;;;;;;4983105;28;20210;-70
2023/06/22 05:47:45;;;;;;;1999.90;999.90;;;;;;;;;;4984083;28;20410;-71
2023/06/22 05:50:30;;;;;;;1999.90;999.90;;;;;;;;;;4984941;28;20321;-71
2023/06/22 05:53:15;;;;;;;1999.90;999.90;;;;;;;;;;4979784;28;20747;-71
2023/06/22 05:56:02;;;;;;;1999.90;999.90;;;;;;;;;;4985051;28;20211;-71
2023/06/22 05:58:47;;;;;;;1999.90;999.90;;;;;;;;;;4978449;28;20595;-71
2023/06/22 06:01:35;;;;;;;1999.90;999.90;;;;;;;;;;4979541;28;20212;-73
2023/06/22 06:04:20;;;;;;;1999.90;999.90;;;;;;;;;;4982751;28;20227;-73
2023/06/22 06:07:05;;;;;;;1999.90;999.90;;;;;;;;;;4987651;28;20413;-71
2023/06/22 06:09:50;;;;;;;1999.90;999.90;;;;;;;;;;4987453;28;20226;-72
2023/06/22 06:12:36;;;;;;;1999.90;999.90;;;;;;;;;;4990179;28;20211;-72
2023/06/22 06:15:21;;;;;;;1999.90;999.90;;;;;;;;;;4986064;28;20218;-73
2023/06/22 06:18:06;;;;;;;1999.90;999.90;;;;;;;;;;4987175;28;20290;-72
2023/06/22 06:20:51;;;;;;;1999.90;999.90;;;;;;;;;;4985878;28;20274;-74
2023/06/22 06:23:36;;;;;;;1999.90;999.90;;;;;;;;;;4992463;28;20774;-74
2023/06/22 06:26:29;;;;;;;1999.90;999.90;;;;;;;;;;4993837;28;20235;-73
2023/06/22 06:29:16;;;;;;;1999.90;999.90;;;;;;;;;;4994386;28;20234;-72
2023/06/22 06:32:01;;;;;;;1999.90;999.90;;;;;;;;;;4990167;28;20286;-73
2023/06/22 06:34:46;;;;;;;1999.90;999.90;;;;;;;;;;4995511;28;20274;-75
2023/06/22 06:37:31;;;;;;;1999.90;999.90;;;;;;;;;;4995661;28;20211;-75
2023/06/22 06:40:16;;;;;;;1999.90;999.90;;;;;;;;;;4995495;28;20521;-73
2023/06/22 06:43:01;;;;;;;1999.90;999.90;;;;;;;;;;4994960;28;20223;-72
2023/06/22 06:45:48;;;;;;;1999.90;999.90;;;;;;;;;;4983149;28;20208;-73
2023/06/22 06:48:33;;;;;;;1999.90;999.90;;;;;;;;;;4977323;28;20206;-74
2023/06/22 06:51:18;;;;;;;1999.90;999.90;;;;;;;;;;4991442;28;20255;-74
2023/06/22 06:54:04;;;;;;;1999.90;999.90;;;;;;;;;;4994131;28;20203;-75
2023/06/22 06:56:49;;;;;;;1999.90;999.90;;;;;;;;;;4994308;28;20210;-74
2023/06/22 06:59:34;;;;;;;1999.90;999.90;;;;;;;;;;4987513;28;20585;-74
2023/06/22 07:02:21;;;;;;;1999.90;999.90;;;;;;;;;;4976276;28;20267;-75
2023/06/22 07:05:06;;;;;;;1999.90;999.90;;;;;;;;;;4990111;28;20612;-75
2023/06/22 07:07:51;;;;;;;1999.90;999.90;;;;;;;;;;4990502;28;20686;-75
2023/06/22 07:10:36;;;;;;;1999.90;999.90;;;;;;;;;;4991609;28;20231;-76
2023/06/22 07:13:21;;;;;;;1999.90;999.90;;;;;;;;;;4993004;28;20207;-73
2023/06/22 07:16:06;;;;;;;1999.90;999.90;;;;;;;;;;4990332;28;20583;-75
2023/06/22 07:18:52;;;;;;;1999.90;999.90;;;;;;;;;;4991461;28;20415;-75
2023/06/22 07:21:37;;;;;;;1999.90;999.90;;;;;;;;;;4991484;28;20358;-74
2023/06/22 07:24:22;;;;;;;1999.90;999.90;;;;;;;;;;4989931;28;20231;-74
2023/06/22 07:27:11;;;;;;;1999.90;999.90;;;;;;;;;;4991099;28;20214;-75
2023/06/22 07:29:56;;;;;;;1999.90;999.90;;;;;;;;;;4989776;28;20230;-75
2023/06/22 07:32:41;;;;;;;1999.90;999.90;;;;;;;;;;4990093;28;20217;-76
2023/06/22 07:35:28;;;;;;;1999.90;999.90;;;;;;;;;;4989238;28;20585;-75
2023/06/22 07:38:14;;;;;;;1999.90;999.90;;;;;;;;;;4989700;28;20212;-75
2023/06/22 07:40:59;;;;;;;1999.90;999.90;;;;;;;;;;4992322;28;20679;-76
2023/06/22 07:43:44;;;;;;;1999.90;999.90;;;;;;;;;;4990288;28;20226;-76
2023/06/22 07:46:30;;;;;;;1999.90;999.90;;;;;;;;;;4992232;28;20211;-77
2023/06/22 07:49:15;;;;;;;1999.90;999.90;;;;;;;;;;4989407;28;20410;-75
2023/06/22 07:52:01;;;;;;;1999.90;999.90;;;;;;;;;;4989860;28;20461;-75
2023/06/22 07:54:46;;;;;;;1999.90;999.90;;;;;;;;;;4989700;28;20302;-76
2023/06/22 07:57:33;;;;;;;1999.90;999.90;;;;;;;;;;4988327;28;20211;-75
2023/06/22 08:00:18;;;;;;;1999.90;999.90;;;;;;;;;;4991879;28;20243;-76
2023/06/22 08:03:05;;;;;;;1999.90;999.90;;;;;;;;;;4989146;28;20227;-75
2023/06/22 08:05:50;;;;;;;1999.90;999.90;;;;;;;;;;4989055;28;20231;-75
2023/06/22 08:08:36;;;;;;;1999.90;999.90;;;;;;;;;;4991686;28;21146;-74
2023/06/22 08:11:22;;;;;;;1999.90;999.90;;;;;;;;;;4988469;28;20262;-75
2023/06/22 08:14:06;;;;;;;1999.90;999.90;;;;;;;;;;4987189;28;20207;-73
2023/06/22 08:16:52;;;;;;;1999.90;999.90;;;;;;;;;;4986498;28;20223;-74
2023/06/22 08:19:37;;;;;;;1999.90;999.90;;;;;;;;;;4986282;28;20235;-74
2023/06/22 08:22:22;;;;;;;1999.90;999.90;;;;;;;;;;4987287;28;20871;-74
2023/06/22 08:25:09;;;;;;;1999.90;999.90;;;;;;;;;;4988945;28;20235;-74
2023/06/22 08:27:54;;;;;;;1999.90;999.90;;;;;;;;;;4984080;28;20202;-74
2023/06/22 08:30:39;;;;;;;1999.90;999.90;;;;;;;;;;4991151;28;20594;-73
2023/06/22 08:33:28;;;;;;;1999.90;999.90;;;;;;;;;;4989888;28;20215;-75
2023/06/22 08:36:13;;;;;;;1999.90;999.90;;;;;;;;;;4990588;28;20211;-73
2023/06/22 08:39:01;;;;;;;1999.90;999.90;;;;;;;;;;4989404;28;20610;-74
2023/06/22 08:41:47;;;;;;;1999.90;999.90;;;;;;;;;;4990343;28;20279;-74
2023/06/22 08:44:32;;;;;;;1999.90;999.90;;;;;;;;;;4989573;28;20216;-74
2023/06/22 08:47:17;;;;;;;1999.90;999.90;;;;;;;;;;4990012;28;20327;-74
2023/06/22 08:50:03;;;;;;;1999.90;999.90;;;;;;;;;;4986248;28;20223;-75
2023/06/22 08:52:48;;;;;;;1999.90;999.90;;;;;;;;;;4990874;28;20222;-73
2023/06/22 08:55:34;;;;;;;1999.90;999.90;;;;;;;;;;4988253;28;20331;-75
2023/06/22 08:58:21;;;;;;;1999.90;999.90;;;;;;;;;;4989364;28;20215;-74
2023/06/22 09:01:06;;;;;;;1999.90;999.90;;;;;;;;;;4988041;28;20211;-75
2023/06/22 09:03:54;;;;;;;1999.90;999.90;;;;;;;;;;4989362;28;20287;-75
2023/06/22 09:06:44;;;;;;;1999.90;999.90;;;;;;;;;;4990955;28;20203;-74
2023/06/22 09:09:29;;;;;;;1999.90;999.90;;;;;;;;;;4988727;28;20352;-74
2023/06/22 09:12:14;;;;;;;1999.90;999.90;;;;;;;;;;4989577;28;20227;-74
2023/06/22 09:15:01;;;;;;;1999.90;999.90;;;;;;;;;;4988087;28;20437;-74
2023/06/22 09:17:47;;;;;;;1999.90;999.90;;;;;;;;;;4990193;28;20222;-75
2023/06/22 09:20:32;;;;;;;1999.90;999.90;;;;;;;;;;4989645;28;20246;-74
2023/06/22 09:23:16;;;;;;;1999.90;999.90;;;;;;;;;;4990713;28;20307;-74
2023/06/22 09:26:01;;;;;;;1999.90;999.90;;;;;;;;;;4990754;28;20191;-73
2023/06/22 09:28:46;;;;;;;1999.90;999.90;;;;;;;;;;4990741;28;20287;-75
2023/06/22 09:31:32;;;;;;;1999.90;999.90;;;;;;;;;;4987298;28;20219;-75
2023/06/22 09:34:20;;;;;;;1999.90;999.90;;;;;;;;;;4988721;28;20441;-75
2023/06/22 09:37:05;;;;;;;1999.90;999.90;;;;;;;;;;4989446;28;20251;-76
2023/06/22 09:39:50;;;;;;;1999.90;999.90;;;;;;;;;;4988293;28;20223;-75
2023/06/22 09:42:35;;;;;;;1999.90;999.90;;;;;;;;;;4990094;28;20222;-75
2023/06/22 09:45:20;;;;;;;1999.90;999.90;;;;;;;;;;4989942;28;20231;-76
2023/06/22 09:48:06;;;;;;;1999.90;999.90;;;;;;;;;;4987993;28;20258;-75
2023/06/22 09:50:51;;;;;;;1999.90;999.90;;;;;;;;;;4989991;28;20211;-74
2023/06/22 09:53:37;;;;;;;1999.90;999.90;;;;;;;;;;4988172;28;20259;-75
2023/06/22 09:56:30;;;;;;;1999.90;999.90;;;;;;;;;;4990497;28;20226;-75
2023/06/22 09:59:15;;;;;;;1999.90;999.90;;;;;;;;;;4985752;28;20267;-76
2023/06/22 10:02:00;;;;;;;1999.90;999.90;;;;;;;;;;4983784;28;20710;-75
2023/06/22 10:04:46;;;;;;;1999.90;999.90;;;;;;;;;;4990815;28;20223;-75
2023/06/22 10:07:31;;;;;;;1999.90;999.90;;;;;;;;;;4990281;28;20957;-75
2023/06/22 10:10:16;;;;;;;1999.90;999.90;;;;;;;;;;4972475;28;20248;-75
2023/06/22 10:13:03;;;;;;;1999.90;999.90;;;;;;;;;;4983767;28;20207;-75
2023/06/22 10:15:51;;;;;;;1999.90;999.90;;;;;;;;;;4991353;28;20726;-76
2023/06/22 10:18:36;;;;;;;1999.90;999.90;;;;;;;;;;4992032;28;20234;-75
2023/06/22 10:21:22;;;;;;;1999.90;999.90;;;;;;;;;;4990564;28;20290;-72
2023/06/22 10:24:08;;;;;;;1999.90;999.90;;;;;;;;;;4983922;28;20238;-73
2023/06/22 10:26:53;;;;;;;1999.90;999.90;;;;;;;;;;4975912;28;20432;-73
2023/06/22 10:29:38;;;;;;;1999.90;999.90;;;;;;;;;;4983958;28;20240;-71
2023/06/22 10:32:23;;;;;;;1999.90;999.90;;;;;;;;;;4984782;28;20980;-72
2023/06/22 10:35:08;;;;;;;1999.90;999.90;;;;;;;;;;4991771;28;20215;-71
2023/06/22 10:37:56;;;;;;;1999.90;999.90;;;;;;;;;;4986692;28;20211;-71
2023/06/22 10:40:41;;;;;;;1999.90;999.90;;;;;;;;;;4989562;28;21002;-70
2023/06/22 10:43:26;;;;;;;1999.90;999.90;;;;;;;;;;4989516;28;20206;-70
2023/06/22 10:46:11;;;;;;;1999.90;999.90;;;;;;;;;;4990862;28;20429;-71
2023/06/22 10:48:58;;;;;;;1999.90;999.90;;;;;;;;;;4989217;28;20234;-70
2023/06/22 10:51:43;;;;;;;1999.90;999.90;;;;;;;;;;4984785;28;20301;-72
2023/06/22 10:54:29;;;;;;;1999.90;999.90;;;;;;;;;;4989672;28;20589;-71
2023/06/22 10:57:14;;;;;;;1999.90;999.90;;;;;;;;;;4987754;28;20282;-71
2023/06/22 10:59:59;;;;;;;1999.90;999.90;;;;;;;;;;4990403;28;20410;-71
2023/06/22 11:02:44;;;;;;;1999.90;999.90;;;;;;;;;;4991191;28;20230;-71
2023/06/22 11:05:30;;;;;;;1999.90;999.90;;;;;;;;;;4992389;28;20227;-71
2023/06/22 11:08:15;;;;;;;1999.90;999.90;;;;;;;;;;4990114;28;20215;-71
2023/06/22 11:11:01;;;;;;;1999.90;999.90;;;;;;;;;;4991385;28;20371;-71
2023/06/22 11:13:46;;;;;;;1999.90;999.90;;;;;;;;;;4992449;28;20709;-70
2023/06/22 11:16:31;;;;;;;1999.90;999.90;;;;;;;;;;4991760;28;20296;-71
2023/06/22 11:19:16;;;;;;;1999.90;999.90;;;;;;;;;;4991250;28;20785;-71
2023/06/22 11:22:01;;;;;;;1999.90;999.90;;;;;;;;;;4991575;28;20211;-71
2023/06/22 11:24:46;;;;;;;1999.90;999.90;;;;;;;;;;4991904;28;20230;-71
2023/06/22 11:27:32;;;;;;;1999.90;999.90;;;;;;;;;;4989313;28;20223;-71
2023/06/22 11:30:17;;;;;;;1999.90;999.90;;;;;;;;;;4989076;28;20231;-71
2023/06/22 11:33:02;;;;;;;1999.90;999.90;;;;;;;;;;4989690;28;20746;-71
2023/06/22 11:35:47;;;;;;;1999.90;999.90;;;;;;;;;;4991338;28;20215;-71
2023/06/22 11:38:33;;;;;;;1999.90;999.90;;;;;;;;;;4991401;28;20616;-71
2023/06/22 11:41:18;;;;;;;1999.90;999.90;;;;;;;;;;4991851;28;20702;-71
2023/06/22 11:44:05;;;;;;;1999.90;999.90;;;;;;;;;;4990566;28;20573;-71
2023/06/22 11:46:50;;;;;;;1999.90;999.90;;;;;;;;;;4991421;28;20749;-71
2023/06/22 11:49:35;;;;;;;1999.90;999.90;;;;;;;;;;4991386;28;20230;-70
2023/06/22 11:52:20;;;;;;;1999.90;999.90;;;;;;;;;;4990953;28;20410;-70
2023/06/22 11:55:06;;;;;;;1999.90;999.90;;;;;;;;;;4991070;28;20274;-71
2023/06/22 11:57:55;;;;;;;1999.90;999.90;;;;;;;;;;4992009;28;20210;-70
2023/06/22 12:00:42;;;;;;;1999.90;999.90;;;;;;;;;;4992014;28;20577;-71
2023/06/22 12:03:27;;;;;;;1999.90;999.90;;;;;;;;;;4991609;28;20832;-70
2023/06/22 12:06:12;;;;;;;1999.90;999.90;;;;;;;;;;4990794;28;20224;-71
2023/06/22 12:08:57;;;;;;;1999.90;999.90;;;;;;;;;;4991780;28;20224;-71
2023/06/22 12:11:42;;;;;;;1999.90;999.90;;;;;;;;;;4990486;28;20403;-70
2023/06/22 12:14:27;;;;;;;1999.90;999.90;;;;;;;;;;4990060;28;20199;-70
2023/06/22 12:17:13;;;;;;;1999.90;999.90;;;;;;;;;;4990723;28;20214;-70
2023/06/22 12:19:59;;;;;;;1999.90;999.90;;;;;;;;;;4988859;28;20614;-71
2023/06/22 12:22:44;;;;;;;1999.90;999.90;;;;;;;;;;4992429;28;20219;-70
2023/06/22 12:25:29;;;;;;;1999.90;999.90;;;;;;;;;;4990659;28;20300;-69
2023/06/22 12:28:14;;;;;;;1999.90;999.90;;;;;;;;;;4990461;28;21026;-70
2023/06/22 12:30:59;;;;;;;1999.90;999.90;;;;;;;;;;4989542;28;20235;-70
2023/06/22 12:33:45;;;;;;;1999.90;999.90;;;;;;;;;;4988334;28;20219;-70
2023/06/22 12:36:30;;;;;;;1999.90;999.90;;;;;;;;;;4987578;28;20227;-72
2023/06/22 12:39:15;;;;;;;1999.90;999.90;;;;;;;;;;4987946;28;20235;-72
2023/06/22 12:42:00;;;;;;;1999.90;999.90;;;;;;;;;;4985097;28;20707;-71
2023/06/22 12:44:45;;;;;;;1999.90;999.90;;;;;;;;;;4984712;28;20436;-72
2023/06/22 12:47:30;;;;;;;1999.90;999.90;;;;;;;;;;4989676;28;20614;-72
2023/06/22 12:50:16;;;;;;;1999.90;999.90;;;;;;;;;;4984098;28;20236;-72
2023/06/22 12:53:04;;;;;;;1999.90;999.90;;;;;;;;;;4989590;28;20342;-73
2023/06/22 12:55:48;;;;;;;1999.90;999.90;;;;;;;;;;4988709;28;20246;-72
2023/06/22 12:58:33;;;;;;;1999.90;999.90;;;;;;;;;;4983047;28;20215;-72
2023/06/22 13:01:19;;;;;;;1999.90;999.90;;;;;;;;;;4985252;28;20238;-72
2023/06/22 13:04:04;;;;;;;1999.90;999.90;;;;;;;;;;4986862;28;20410;-73
2023/06/22 13:06:50;;;;;;;1999.90;999.90;;;;;;;;;;4988548;28;20206;-73
2023/06/22 13:09:36;;;;;;;1999.90;999.90;;;;;;;;;;4986850;28;20239;-73
2023/06/22 13:12:22;;;;;;;1999.90;999.90;;;;;;;;;;4986951;28;20340;-74
2023/06/22 13:15:07;;;;;;;1999.90;999.90;;;;;;;;;;4984026;28;20219;-75
2023/06/22 13:17:52;;;;;;;1999.90;999.90;;;;;;;;;;4985248;28;20290;-75
2023/06/22 13:20:37;;;;;;;1999.90;999.90;;;;;;;;;;4985683;28;20302;-74
2023/06/22 13:23:23;;;;;;;1999.90;999.90;;;;;;;;;;4985254;28;20227;-73
2023/06/22 13:26:08;;;;;;;1999.90;999.90;;;;;;;;;;4986806;28;20306;-75
2023/06/22 13:28:53;;;;;;;1999.90;999.90;;;;;;;;;;4984574;28;20231;-73
2023/06/22 13:31:39;;;;;;;1999.90;999.90;;;;;;;;;;4986766;28;20703;-74
2023/06/22 13:34:24;;;;;;;1999.90;999.90;;;;;;;;;;4986026;28;20318;-75
2023/06/22 13:37:09;;;;;;;1999.90;999.90;;;;;;;;;;4987347;28;20234;-74
2023/06/22 13:39:56;;;;;;;1999.90;999.90;;;;;;;;;;4987572;28;20230;-75
2023/06/22 13:42:41;;;;;;;1999.90;999.90;;;;;;;;;;4988558;28;20290;-72
2023/06/22 13:45:26;;;;;;;1999.90;999.90;;;;;;;;;;4989073;28;20302;-74
2023/06/22 13:48:11;;;;;;;1999.90;999.90;;;;;;;;;;4985336;28;20223;-72
2023/06/22 13:50:56;;;;;;;1999.90;999.90;;;;;;;;;;4985259;28;20215;-73
2023/06/22 13:53:41;;;;;;;1999.90;999.90;;;;;;;;;;4984266;28;20214;-71
2023/06/22 13:56:27;;;;;;;1999.90;999.90;;;;;;;;;;4984186;28;20400;-74
2023/06/22 13:59:12;;;;;;;1999.90;999.90;;;;;;;;;;4986974;28;20254;-73
2023/06/22 14:01:57;;;;;;;1999.90;999.90;;;;;;;;;;4982490;28;20218;-72
2023/06/22 14:04:42;;;;;;;1999.90;999.90;;;;;;;;;;4987860;28;20214;-71
2023/06/22 14:07:27;;;;;;;1999.90;999.90;;;;;;;;;;4985024;28;20215;-73
2023/06/22 14:10:12;;;;;;;1999.90;999.90;;;;;;;;;;4989438;28;20231;-73
2023/06/22 14:12:59;;;;;;;1999.90;999.90;;;;;;;;;;4988562;28;20215;-72
2023/06/22 14:15:47;;;;;;;1999.90;999.90;;;;;;;;;;4985433;28;20218;-72
2023/06/22 14:18:32;;;;;;;1999.90;999.90;;;;;;;;;;4986475;28;20208;-69
2023/06/22 14:21:18;;;;;;;1999.90;999.90;;;;;;;;;;4990625;28;20218;-72
2023/06/22 14:24:03;;;;;;;1999.90;999.90;;;;;;;;;;4987637;28;20219;-69
2023/06/22 14:26:49;;;;;;;1999.90;999.90;;;;;;;;;;4991454;28;20763;-70
2023/06/22 14:29:35;;;;;;;1999.90;999.90;;;;;;;;;;4988279;28;20492;-70
2023/06/22 14:32:20;;;;;;;1999.90;999.90;;;;;;;;;;4992006;28;20246;-71
2023/06/22 14:35:05;;;;;;;1999.90;999.90;;;;;;;;;;4990544;28;20706;-70
2023/06/22 14:37:50;;;;;;;1999.90;999.90;;;;;;;;;;4990437;28;20216;-70
2023/06/22 14:40:35;;;;;;;1999.90;999.90;;;;;;;;;;4984979;28;20239;-70
2023/06/22 14:43:20;;;;;;;1999.90;999.90;;;;;;;;;;4989113;28;20207;-71
2023/06/22 14:46:06;;;;;;;1999.90;999.90;;;;;;;;;;4989019;28;20315;-72
2023/06/22 14:48:51;;;;;;;1999.90;999.90;;;;;;;;;;4989750;28;21052;-72
2023/06/22 14:51:36;;;;;;;1999.90;999.90;;;;;;;;;;4991372;28;20223;-71
2023/06/22 14:54:21;;;;;;;1999.90;999.90;;;;;;;;;;4989170;28;20213;-68
2023/06/22 14:57:06;;;;;;;1999.90;999.90;;;;;;;;;;4990551;28;20640;-68
2023/06/22 14:59:51;;;;;;;1999.90;999.90;;;;;;;;;;4986183;28;20226;-67
2023/06/22 15:02:37;;;;;;;1999.90;999.90;;;;;;;;;;4985757;28;20708;-67
2023/06/22 15:05:23;;;;;;;1999.90;999.90;;;;;;;;;;4989417;28;20222;-67
2023/06/22 15:08:09;;;;;;;1999.90;999.90;;;;;;;;;;4989163;28;20742;-66
2023/06/22 15:10:54;;;;;;;1999.90;999.90;;;;;;;;;;4990339;28;20211;-68
2023/06/22 15:13:40;;;;;;;1999.90;999.90;;;;;;;;;;4990301;28;20311;-68
2023/06/22 15:16:25;;;;;;;1999.90;999.90;;;;;;;;;;4988239;28;20282;-67
2023/06/22 15:19:12;;;;;;;1999.90;999.90;;;;;;;;;;4990850;28;20282;-69
2023/06/22 15:21:57;;;;;;;1999.90;999.90;;;;;;;;;;4988944;28;21026;-69
2023/06/22 15:24:43;;;;;;;1999.90;999.90;;;;;;;;;;4990047;28;20215;-68
2023/06/22 15:27:28;;;;;;;1999.90;999.90;;;;;;;;;;4987032;28;20204;-69
2023/06/22 15:30:13;;;;;;;1999.90;999.90;;;;;;;;;;4991925;28;20720;-70
2023/06/22 15:32:58;;;;;;;1999.90;999.90;;;;;;;;;;4990597;28;20204;-69
2023/06/22 15:35:44;;;;;;;1999.90;999.90;;;;;;;;;;4991506;28;20215;-70
2023/06/22 15:38:29;;;;;;;1999.90;999.90;;;;;;;;;;4992495;28;20323;-69
2023/06/22 15:41:14;;;;;;;1999.90;999.90;;;;;;;;;;4992239;28;20403;-70
2023/06/22 15:43:58;;;;;;;1999.90;999.90;;;;;;;;;;4993069;28;20204;-69